Time;durP1;ratioP1;P1;durP2;ratioP2;P2;SDS_P1;SDS_P2;PMS_P1;PMS_P2;Temp;Humidity;BMP_temperature;BMP_pressure;BME280_temperature;BME280_humidity;BME280_pressure;Samples;Min_cycle;Max_cycle;Signal;HPM_P1;HPM_P2
2021/07/05 00:00:22;;;;;;;2.07;1.87;;;25.20;56.10;;;;;;4915353;29;20453;-86
2021/07/05 00:02:48;;;;;;;2.27;1.90;;;25.20;56.10;;;;;;4915978;29;20412;-85
2021/07/05 00:05:15;;;;;;;2.47;2.17;;;25.20;56.10;;;;;;4932149;29;20421;-85
2021/07/05 00:07:47;;;;;;;1.70;1.50;;;25.20;56.10;;;;;;4931248;29;20480;-85
2021/07/05 00:10:17;;;;;;;3.20;2.00;;;25.20;56.10;;;;;;4915506;29;20423;-84
2021/07/05 00:12:46;;;;;;;3.33;1.80;;;25.20;56.10;;;;;;4931387;29;20416;-84
2021/07/05 00:15:19;;;;;;;2.33;1.70;;;25.20;56.10;;;;;;4931816;29;20779;-84
2021/07/05 00:17:47;;;;;;;4.77;1.80;;;25.20;56.00;;;;;;4931411;29;20500;-83
2021/07/05 00:20:16;;;;;;;3.50;1.90;;;25.10;56.00;;;;;;4930504;29;20480;-84
2021/07/05 00:22:42;;;;;;;3.10;1.60;;;25.20;56.00;;;;;;4915892;29;20428;-84
2021/07/05 00:25:09;;;;;;;2.17;1.40;;;25.20;56.00;;;;;;4930803;29;20440;-85
2021/07/05 00:27:36;;;;;;;1.73;1.47;;;25.20;56.00;;;;;;4915729;29;20404;-85
2021/07/05 00:30:04;;;;;;;2.43;1.50;;;25.20;56.00;;;;;;4929692;29;20424;-85
2021/07/05 00:32:30;;;;;;;1.90;1.57;;;25.20;55.90;;;;;;4930482;29;20421;-85
2021/07/05 00:34:56;;;;;;;2.10;1.90;;;25.20;55.90;;;;;;4930490;29;20424;-85
2021/07/05 00:37:22;;;;;;;1.67;1.57;;;25.20;55.90;;;;;;4915742;29;20935;-85
2021/07/05 00:39:48;;;;;;;1.50;1.40;;;25.20;55.90;;;;;;4915362;29;20468;-85
2021/07/05 00:42:14;;;;;;;2.80;1.67;;;25.20;55.90;;;;;;4914949;29;20405;-85
2021/07/05 00:44:40;;;;;;;2.00;1.70;;;25.10;55.80;;;;;;4915676;29;20939;-83
2021/07/05 00:47:07;;;;;;;4.03;1.70;;;25.20;55.80;;;;;;4915467;29;20240;-85
2021/07/05 00:49:34;;;;;;;2.70;1.60;;;25.20;55.90;;;;;;4929999;29;20429;-85
2021/07/05 00:52:00;;;;;;;2.27;1.50;;;25.20;55.80;;;;;;4913990;29;20433;-85
2021/07/05 00:54:27;;;;;;;2.10;1.90;;;25.20;55.80;;;;;;4915305;29;20420;-85
2021/07/05 00:56:53;;;;;;;4.50;1.93;;;25.10;55.80;;;;;;4930172;29;20433;-85
2021/07/05 00:59:19;;;;;;;1.90;1.80;;;25.20;55.80;;;;;;4930564;29;20488;-85
2021/07/05 01:01:45;;;;;;;2.13;1.60;;;25.20;55.80;;;;;;4931837;29;20205;-85
2021/07/05 01:04:11;;;;;;;2.67;1.63;;;25.10;55.80;;;;;;4931798;29;20436;-85
2021/07/05 01:06:37;;;;;;;5.03;1.90;;;25.10;55.80;;;;;;4915440;29;20180;-85
2021/07/05 01:09:04;;;;;;;2.10;1.67;;;25.20;55.80;;;;;;4932684;29;20234;-84
2021/07/05 01:11:30;;;;;;;3.20;1.77;;;25.10;55.70;;;;;;4899898;29;20217;-85
2021/07/05 01:13:56;;;;;;;2.07;1.87;;;25.10;55.70;;;;;;4933090;29;20408;-84
2021/07/05 01:16:22;;;;;;;1.80;1.70;;;25.10;55.80;;;;;;4936098;29;20424;-84
2021/07/05 01:18:48;;;;;;;1.90;1.70;;;25.10;55.70;;;;;;4933533;29;20548;-85
2021/07/05 01:21:14;;;;;;;2.40;1.60;;;25.10;55.70;;;;;;4932573;29;20179;-85
2021/07/05 01:23:40;;;;;;;2.23;1.60;;;25.10;55.80;;;;;;4931967;29;20424;-85
2021/07/05 01:26:07;;;;;;;3.20;2.03;;;25.20;55.80;;;;;;4933565;29;20416;-85
2021/07/05 01:28:33;;;;;;;2.80;1.70;;;25.20;55.80;;;;;;4931899;29;20555;-84
2021/07/05 01:30:59;;;;;;;2.20;2.00;;;25.10;55.80;;;;;;4932995;29;20430;-84
2021/07/05 01:36:47;;;;;;;2.70;1.90;;;25.10;55.70;;;;;;4933503;29;20229;-84
2021/07/05 01:39:14;;;;;;;2.37;1.60;;;25.10;55.80;;;;;;4932665;29;20471;-84
2021/07/05 01:41:40;;;;;;;3.07;1.60;;;25.10;55.80;;;;;;4915967;29;20459;-85
2021/07/05 01:44:06;;;;;;;4.80;1.90;;;25.10;55.80;;;;;;4933071;29;20423;-84
2021/07/05 01:49:54;;;;;;;2.17;1.90;;;25.10;55.80;;;;;;4932487;29;20180;-84
2021/07/05 01:52:20;;;;;;;2.50;1.60;;;25.10;55.90;;;;;;4931683;29;20419;-84
2021/07/05 01:54:46;;;;;;;2.40;1.90;;;25.10;56.40;;;;;;4931597;29;20475;-84
2021/07/05 01:57:33;;;;;;;4.50;1.80;;;25.10;55.80;;;;;;4932714;29;20424;-86
2021/07/05 02:00:01;;;;;;;3.40;2.03;;;25.10;55.80;;;;;;4931914;29;20203;-84
2021/07/05 02:02:28;;;;;;;2.37;1.60;;;25.10;55.80;;;;;;4931310;29;20422;-84
2021/07/05 02:04:54;;;;;;;5.03;2.00;;;25.10;55.80;;;;;;4932497;29;20416;-83
2021/07/05 02:07:21;;;;;;;2.13;1.93;;;25.10;55.80;;;;;;4931649;29;20436;-85
2021/07/05 02:09:47;;;;;;;3.43;1.80;;;25.10;55.80;;;;;;4933112;29;20887;-84
2021/07/05 02:12:14;;;;;;;2.87;2.03;;;25.10;55.80;;;;;;4932001;29;20452;-85
2021/07/05 02:14:41;;;;;;;2.47;2.27;;;25.10;55.80;;;;;;4932664;29;20447;-84
2021/07/05 02:17:10;;;;;;;3.03;1.87;;;25.10;55.80;;;;;;4931667;29;20954;-85
2021/07/05 02:19:37;;;;;;;5.10;2.30;;;25.10;55.80;;;;;;4931668;29;20465;-85
2021/07/05 02:22:05;;;;;;;2.20;2.00;;;25.10;55.90;;;;;;4931548;29;20428;-85
2021/07/05 02:24:31;;;;;;;1.70;1.60;;;25.10;55.80;;;;;;4915543;29;20416;-85
2021/07/05 02:26:57;;;;;;;2.53;2.33;;;25.10;55.80;;;;;;4931508;29;20474;-85
2021/07/05 02:29:23;;;;;;;2.03;1.83;;;25.10;55.80;;;;;;4930862;29;20188;-85
2021/07/05 02:31:49;;;;;;;2.90;2.07;;;25.10;55.80;;;;;;4931306;29;20583;-85
2021/07/05 02:34:15;;;;;;;4.47;2.10;;;25.10;55.80;;;;;;4931740;29;20424;-85
2021/07/05 02:36:42;;;;;;;3.83;2.30;;;25.10;55.80;;;;;;4930909;29;20430;-85
2021/07/05 02:39:09;;;;;;;2.87;2.10;;;25.10;55.80;;;;;;4932031;29;20459;-84
2021/07/05 02:41:35;;;;;;;2.10;1.90;;;25.10;55.80;;;;;;4930573;29;20415;-84
2021/07/05 02:44:07;;;;;;;3.10;2.30;;;25.00;55.80;;;;;;4932059;29;20416;-84
2021/07/05 02:46:33;;;;;;;2.83;2.13;;;25.00;55.80;;;;;;4930866;29;20903;-84
2021/07/05 02:48:59;;;;;;;2.80;1.90;;;25.00;55.90;;;;;;4929925;29;20420;-84
2021/07/05 02:51:25;;;;;;;2.37;1.93;;;25.00;55.90;;;;;;4931117;29;20424;-85
2021/07/05 02:53:51;;;;;;;2.97;2.67;;;24.90;55.90;;;;;;4932644;29;20455;-85
2021/07/05 02:56:18;;;;;;;1.93;1.73;;;25.00;56.00;;;;;;4935123;29;20207;-85
2021/07/05 02:58:44;;;;;;;2.50;2.30;;;24.90;55.90;;;;;;4934163;29;20275;-84
2021/07/05 03:01:11;;;;;;;2.20;2.00;;;24.90;55.90;;;;;;4934498;29;20422;-84
2021/07/05 03:03:37;;;;;;;2.13;1.93;;;24.90;56.00;;;;;;4935852;29;20550;-85
2021/07/05 03:06:03;;;;;;;3.60;2.20;;;24.90;56.00;;;;;;4934217;29;20424;-85
2021/07/05 03:08:29;;;;;;;5.00;1.97;;;24.90;56.00;;;;;;4933987;29;20451;-85
2021/07/05 03:10:55;;;;;;;3.20;1.97;;;24.90;56.00;;;;;;4934415;29;20427;-85
2021/07/05 03:13:21;;;;;;;2.87;1.50;;;24.90;56.10;;;;;;4936054;29;20176;-85
2021/07/05 03:15:48;;;;;;;2.03;1.80;;;24.90;56.10;;;;;;4934312;29;20467;-85
2021/07/05 03:18:15;;;;;;;2.00;1.70;;;24.90;56.10;;;;;;4933579;29;20235;-85
2021/07/05 03:20:45;;;;;;;4.70;2.10;;;24.90;56.10;;;;;;4934612;29;20482;-84
2021/07/05 03:23:13;;;;;;;2.53;1.90;;;24.80;56.10;;;;;;4934062;29;20426;-85
2021/07/05 03:25:39;;;;;;;1.83;1.60;;;24.80;56.10;;;;;;4934584;29;20419;-85
2021/07/05 03:28:07;;;;;;;1.73;1.63;;;24.80;56.10;;;;;;4934534;29;20511;-83
2021/07/05 03:30:35;;;;;;;2.70;1.73;;;24.80;56.10;;;;;;4935100;29;20475;-85
2021/07/05 03:33:07;;;;;;;2.07;1.87;;;24.80;56.10;;;;;;4933603;29;20463;-85
2021/07/05 03:35:34;;;;;;;3.53;1.77;;;24.80;56.10;;;;;;4933957;29;20423;-85
2021/07/05 03:38:00;;;;;;;2.53;2.17;;;24.80;56.20;;;;;;4934406;29;20451;-85
2021/07/05 03:40:31;;;;;;;2.50;1.80;;;24.80;56.20;;;;;;4933762;29;20416;-85
2021/07/05 03:42:57;;;;;;;3.00;2.07;;;24.80;56.20;;;;;;4934040;29;20182;-85
2021/07/05 03:45:29;;;;;;;3.80;1.90;;;24.80;56.20;;;;;;4933740;29;20427;-85
2021/07/05 03:47:56;;;;;;;3.57;2.07;;;24.80;56.20;;;;;;4934919;29;20408;-85
2021/07/05 03:50:22;;;;;;;3.10;1.90;;;24.80;56.20;;;;;;4936917;29;20528;-84
2021/07/05 03:52:49;;;;;;;2.07;1.87;;;24.80;56.20;;;;;;4935900;29;20416;-85
2021/07/05 03:55:18;;;;;;;1.97;1.77;;;24.80;56.20;;;;;;4937283;29;20412;-85
2021/07/05 03:57:44;;;;;;;2.60;1.67;;;24.80;56.20;;;;;;4936259;29;20424;-85
2021/07/05 04:00:14;;;;;;;2.50;2.07;;;24.80;56.20;;;;;;4935076;29;20435;-84
2021/07/05 04:02:40;;;;;;;3.03;1.60;;;24.80;56.70;;;;;;4935456;29;20444;-84
2021/07/05 04:05:07;;;;;;;2.23;1.80;;;24.80;56.20;;;;;;4936567;29;20447;-84
2021/07/05 04:07:35;;;;;;;1.93;1.73;;;24.80;56.10;;;;;;4934211;29;20780;-84
2021/07/05 04:10:03;;;;;;;2.07;1.87;;;24.80;56.10;;;;;;4934340;29;20456;-84
2021/07/05 04:12:29;;;;;;;2.77;1.70;;;24.80;56.10;;;;;;4933107;29;20435;-84
2021/07/05 04:14:55;;;;;;;3.90;1.80;;;24.70;56.10;;;;;;4934493;29;20415;-84
2021/07/05 04:17:21;;;;;;;1.90;1.60;;;24.80;56.10;;;;;;4933914;29;20188;-84
2021/07/05 04:19:48;;;;;;;2.97;1.80;;;24.70;56.10;;;;;;4934433;29;20200;-84
2021/07/05 04:22:18;;;;;;;1.67;1.57;;;24.80;56.20;;;;;;4934255;29;20581;-84
2021/07/05 04:24:46;;;;;;;2.70;1.27;;;24.80;56.10;;;;;;4933093;29;20408;-84
2021/07/05 04:27:15;;;;;;;1.90;1.70;;;24.80;56.20;;;;;;4932773;29;20430;-85
2021/07/05 04:29:53;;;;;;;1.77;1.53;;;24.80;56.20;;;;;;4934927;29;20491;-84
2021/07/05 04:32:20;;;;;;;2.47;1.50;;;24.80;56.20;;;;;;4935070;29;20487;-86
2021/07/05 04:34:46;;;;;;;2.13;1.47;;;24.80;56.20;;;;;;4933066;29;20423;-86
2021/07/05 04:37:12;;;;;;;2.50;1.57;;;24.80;56.20;;;;;;4935760;29;20452;-84
2021/07/05 04:39:41;;;;;;;1.70;1.53;;;24.80;56.20;;;;;;4905277;29;20223;-85
2021/07/05 04:42:12;;;;;;;1.77;1.40;;;24.80;56.70;;;;;;4918219;29;20476;-85
2021/07/05 04:44:41;;;;;;;1.67;1.43;;;24.80;56.20;;;;;;4916744;29;20460;-87
2021/07/05 04:47:08;;;;;;;1.70;1.57;;;24.80;56.10;;;;;;4916858;29;20488;-86
2021/07/05 04:49:36;;;;;;;1.63;1.40;;;24.90;56.20;;;;;;4902663;29;20428;-86
2021/07/05 04:52:02;;;;;;;1.90;1.77;;;24.80;56.10;;;;;;4926972;29;20432;-87
2021/07/05 04:54:31;;;;;;;2.20;1.57;;;24.90;56.10;;;;;;4936364;29;20518;-87
2021/07/05 04:57:00;;;;;;;1.40;1.30;;;24.90;56.10;;;;;;4921276;29;20432;-86
2021/07/05 04:59:26;;;;;;;1.70;1.33;;;24.90;56.10;;;;;;4922380;29;20477;-86
2021/07/05 05:01:53;;;;;;;1.67;1.30;;;24.90;56.10;;;;;;4938125;29;20407;-85
2021/07/05 05:04:19;;;;;;;2.73;1.60;;;24.90;56.10;;;;;;4937310;29;20776;-87
2021/07/05 05:06:45;;;;;;;1.87;1.60;;;24.90;56.10;;;;;;4938286;29;20427;-86
2021/07/05 05:09:11;;;;;;;2.00;1.80;;;24.90;56.10;;;;;;4937324;29;20443;-86
2021/07/05 05:11:37;;;;;;;5.63;2.00;;;24.90;56.10;;;;;;4935955;29;20442;-86
2021/07/05 05:14:03;;;;;;;3.90;1.40;;;24.90;56.00;;;;;;4938118;29;20429;-86
2021/07/05 05:16:30;;;;;;;2.13;1.40;;;25.00;56.10;;;;;;4936731;29;20487;-86
2021/07/05 05:18:56;;;;;;;1.50;1.40;;;25.00;56.00;;;;;;4937388;29;20474;-86
2021/07/05 05:21:23;;;;;;;2.20;1.43;;;25.00;56.00;;;;;;4920985;29;20412;-85
2021/07/05 05:23:49;;;;;;;2.43;1.57;;;25.00;56.00;;;;;;4936332;29;20446;-87
2021/07/05 05:26:17;;;;;;;4.00;1.87;;;25.00;56.00;;;;;;4937178;29;20420;-86
2021/07/05 05:28:56;;;;;;;3.30;1.93;;;25.00;56.00;;;;;;4936374;29;20444;-85
2021/07/05 05:31:23;;;;;;;2.33;1.83;;;25.00;56.00;;;;;;4936584;29;20504;-85
2021/07/05 05:33:52;;;;;;;2.60;1.30;;;25.00;56.00;;;;;;4937268;29;20422;-86
2021/07/05 05:36:18;;;;;;;1.40;1.23;;;25.00;56.00;;;;;;4920197;29;20427;-86
2021/07/05 05:38:48;;;;;;;2.00;1.80;;;25.00;56.00;;;;;;4936037;29;20491;-86
2021/07/05 05:41:17;;;;;;;5.43;1.87;;;25.00;56.00;;;;;;4952337;29;20420;-85
2021/07/05 05:43:46;;;;;;;2.47;1.50;;;25.00;56.00;;;;;;4936373;29;20430;-85
2021/07/05 05:46:16;;;;;;;2.50;1.33;;;25.00;56.00;;;;;;4935721;29;20424;-84
2021/07/05 05:48:49;;;;;;;1.57;1.33;;;25.00;55.90;;;;;;4931228;29;20430;-84
2021/07/05 05:51:18;;;;;;;1.40;1.30;;;25.10;56.00;;;;;;4929421;29;20440;-85
2021/07/05 05:53:44;;;;;;;1.80;1.60;;;25.00;55.90;;;;;;4930061;29;20491;-86
2021/07/05 05:56:10;;;;;;;1.30;1.20;;;25.10;55.90;;;;;;4929794;29;20459;-86
2021/07/05 05:58:39;;;;;;;1.40;1.20;;;25.00;55.90;;;;;;4931460;29;20296;-86
2021/07/05 06:01:06;;;;;;;1.87;1.23;;;25.10;55.90;;;;;;4932346;29;20466;-85
2021/07/05 06:03:37;;;;;;;1.83;1.27;;;25.10;55.90;;;;;;4931741;29;20419;-85
2021/07/05 06:06:03;;;;;;;1.60;1.20;;;25.10;55.90;;;;;;4932001;29;20416;-84
2021/07/05 06:08:29;;;;;;;1.57;1.47;;;25.00;55.90;;;;;;4931567;29;20451;-85
2021/07/05 06:10:55;;;;;;;1.50;1.30;;;25.10;55.90;;;;;;4929960;29;20427;-84
2021/07/05 06:13:21;;;;;;;2.80;1.20;;;25.10;55.90;;;;;;4930953;29;20492;-86
2021/07/05 06:19:10;;;;;;;2.30;1.30;;;25.10;55.80;;;;;;4931175;29;20283;-83
2021/07/05 06:21:37;;;;;;;2.73;1.17;;;25.10;56.00;;;;;;4931390;29;20503;-83
2021/07/05 06:24:06;;;;;;;3.23;1.43;;;25.00;56.00;;;;;;4931804;29;20436;-83
2021/07/05 06:26:34;;;;;;;1.97;1.40;;;25.00;55.90;;;;;;4931294;29;20416;-83
2021/07/05 06:29:00;;;;;;;1.60;1.20;;;25.10;56.00;;;;;;4930020;29;20415;-84
2021/07/05 06:31:26;;;;;;;1.30;1.07;;;25.10;55.90;;;;;;4929302;29;20448;-83
2021/07/05 06:33:52;;;;;;;2.13;1.13;;;25.10;56.00;;;;;;4930380;29;20436;-83
2021/07/05 06:36:19;;;;;;;1.90;1.53;;;25.10;56.00;;;;;;4929866;29;20435;-83
2021/07/05 06:38:48;;;;;;;1.60;1.20;;;25.10;55.90;;;;;;4945850;29;20459;-83
2021/07/05 06:41:14;;;;;;;1.93;1.50;;;25.10;56.00;;;;;;4929821;29;20418;-83
2021/07/05 06:43:40;;;;;;;1.70;1.60;;;25.10;55.90;;;;;;4930242;29;20501;-83
2021/07/05 06:46:06;;;;;;;1.27;1.17;;;25.10;55.90;;;;;;4929291;29;20415;-84
2021/07/05 06:48:41;;;;;;;1.97;1.10;;;25.10;55.90;;;;;;4929798;29;20431;-84
2021/07/05 06:51:12;;;;;;;4.40;1.27;;;25.10;55.90;;;;;;4931912;29;20502;-84
2021/07/05 06:53:41;;;;;;;1.70;1.47;;;25.10;55.90;;;;;;4929073;29;20439;-84
2021/07/05 06:56:07;;;;;;;1.37;1.07;;;25.10;55.90;;;;;;4913673;29;20495;-84
2021/07/05 06:58:33;;;;;;;1.80;1.20;;;25.10;55.90;;;;;;4921162;29;20452;-84
2021/07/05 07:01:02;;;;;;;3.73;1.37;;;25.10;55.90;;;;;;4911715;29;20408;-84
2021/07/05 07:03:28;;;;;;;1.50;1.27;;;25.10;55.90;;;;;;4909923;29;20180;-84
2021/07/05 07:05:55;;;;;;;1.37;1.23;;;25.10;55.90;;;;;;4925568;29;20449;-84
2021/07/05 07:11:44;;;;;;;1.50;1.10;;;25.10;55.90;;;;;;4930428;29;20443;-84
2021/07/05 07:14:11;;;;;;;1.17;1.07;;;25.10;56.00;;;;;;4928529;29;21004;-84
2021/07/05 07:19:21;;;;;;;1.30;1.17;;;25.10;56.00;;;;;;4930317;29;20454;-84
2021/07/05 07:21:56;;;;;;;1.90;1.67;;;25.00;55.90;;;;;;4929826;29;20499;-84
2021/07/05 07:24:26;;;;;;;2.13;1.30;;;25.10;56.00;;;;;;4928712;29;20420;-84
2021/07/05 07:26:52;;;;;;;2.37;1.20;;;25.10;56.00;;;;;;4929436;29;20419;-84
2021/07/05 07:29:18;;;;;;;1.70;1.40;;;25.00;55.90;;;;;;4928900;29;20432;-85
2021/07/05 07:31:48;;;;;;;1.87;1.37;;;25.10;56.00;;;;;;4928754;29;20487;-84
2021/07/05 07:34:23;;;;;;;1.33;1.23;;;25.10;56.00;;;;;;4929303;29;20186;-84
2021/07/05 07:36:49;;;;;;;1.80;1.30;;;25.10;56.00;;;;;;4928893;29;20931;-84
2021/07/05 07:39:19;;;;;;;1.70;1.33;;;25.10;56.00;;;;;;4929350;29;20459;-84
2021/07/05 07:41:45;;;;;;;1.50;1.40;;;25.10;56.00;;;;;;4932255;29;20426;-84
2021/07/05 07:44:11;;;;;;;1.97;1.00;;;25.10;56.00;;;;;;4931957;29;20420;-84
2021/07/05 07:46:37;;;;;;;1.67;1.17;;;25.10;56.00;;;;;;4931620;29;20171;-84
2021/07/05 07:49:05;;;;;;;1.53;1.40;;;25.10;56.00;;;;;;4932873;29;20454;-84
2021/07/05 07:51:31;;;;;;;1.40;1.30;;;25.10;56.00;;;;;;4931288;29;20181;-84
2021/07/05 08:00:42;;;;;;;2.50;1.20;;;25.10;55.90;;;;;;4932803;29;20395;-84
2021/07/05 08:03:13;;;;;;;1.53;1.23;;;25.00;56.00;;;;;;4932852;29;20419;-84
2021/07/05 08:05:39;;;;;;;1.60;1.30;;;25.00;56.00;;;;;;4931798;29;20475;-84
2021/07/05 08:08:05;;;;;;;1.60;1.30;;;25.10;56.00;;;;;;4932354;29;20408;-84
2021/07/05 08:10:35;;;;;;;1.60;1.30;;;25.00;56.00;;;;;;4932906;29;20423;-84
2021/07/05 08:20:08;;;;;;;1.60;1.10;;;25.10;56.00;;;;;;4893176;29;20456;-84
2021/07/05 08:22:46;;;;;;;2.13;1.40;;;25.10;56.10;;;;;;4873669;29;20406;-84
2021/07/05 08:25:12;;;;;;;2.07;1.20;;;25.00;56.10;;;;;;4858228;29;20458;-84
2021/07/05 08:27:40;;;;;;;2.00;1.17;;;25.10;56.20;;;;;;4873586;29;20426;-84
2021/07/05 08:30:10;;;;;;;1.50;1.20;;;25.10;56.20;;;;;;4871548;29;20510;-84
2021/07/05 08:32:38;;;;;;;3.47;1.20;;;25.10;56.20;;;;;;4873322;29;20468;-84
2021/07/05 08:35:06;;;;;;;1.17;1.07;;;25.10;56.30;;;;;;4866691;29;20436;-84
2021/07/05 08:37:39;;;;;;;1.40;1.10;;;25.20;56.20;;;;;;4892395;29;20437;-84
2021/07/05 08:40:08;;;;;;;1.50;1.40;;;25.20;56.30;;;;;;4891906;29;20493;-84
2021/07/05 08:42:36;;;;;;;1.93;1.07;;;25.20;56.30;;;;;;4892135;29;20472;-84
2021/07/05 08:45:16;;;;;;;1.57;1.03;;;25.30;56.20;;;;;;4891377;29;20425;-85
2021/07/05 08:47:44;;;;;;;1.63;1.00;;;25.30;56.30;;;;;;4888306;29;20422;-85
2021/07/05 08:53:33;;;;;;;3.03;1.17;;;25.30;56.10;;;;;;4920968;29;20398;-85
2021/07/05 08:56:05;;;;;;;1.80;1.40;;;25.30;56.30;;;;;;4930461;29;20491;-84
2021/07/05 08:58:45;;;;;;;1.30;1.10;;;25.30;56.10;;;;;;4930025;29;20550;-85
2021/07/05 09:01:27;;;;;;;2.70;1.17;;;25.40;56.80;;;;;;4929476;29;20432;-85
2021/07/05 09:03:54;;;;;;;1.60;1.30;;;25.40;56.20;;;;;;4930799;29;20426;-85
2021/07/05 09:06:38;;;;;;;2.07;1.00;;;25.40;56.20;;;;;;4929496;29;20463;-85
2021/07/05 09:09:12;;;;;;;1.83;1.23;;;25.40;56.20;;;;;;4935032;29;20427;-88
2021/07/05 09:12:03;;;;;;;1.40;1.10;;;25.40;56.10;;;;;;4934328;29;20431;-87
2021/07/05 09:14:31;;;;;;;1.40;1.13;;;25.50;56.20;;;;;;4966799;29;20480;-88
2021/07/05 09:17:37;;;;;;;1.20;1.07;;;25.40;56.10;;;;;;4967295;29;20435;-87
2021/07/05 09:20:36;;;;;;;1.20;1.10;;;25.50;56.20;;;;;;4928565;29;20496;-88
2021/07/05 09:23:16;;;;;;;3.37;1.20;;;25.50;56.10;;;;;;4877564;29;20426;-87
2021/07/05 09:25:47;;;;;;;1.43;1.13;;;25.50;56.10;;;;;;4876351;29;20434;-87
2021/07/05 09:28:23;;;;;;;1.30;1.10;;;25.50;56.10;;;;;;4877883;29;20450;-88
2021/07/05 09:31:27;;;;;;;1.67;1.30;;;25.50;56.10;;;;;;4857314;29;20437;-87
2021/07/05 09:34:16;;;;;;;1.37;1.00;;;25.50;56.10;;;;;;4807661;29;20421;-87
2021/07/05 09:36:46;;;;;;;1.43;1.30;;;25.50;56.20;;;;;;4807591;29;20424;-86
2021/07/05 09:39:19;;;;;;;1.20;1.10;;;25.50;56.60;;;;;;4806441;29;20511;-86
2021/07/05 09:41:49;;;;;;;1.20;1.00;;;25.50;56.10;;;;;;4820831;29;20441;-86
2021/07/05 09:44:31;;;;;;;1.10;1.00;;;25.50;56.00;;;;;;4821729;29;20421;-86
2021/07/05 09:47:02;;;;;;;1.20;1.10;;;25.50;55.90;;;;;;4806811;29;20429;-86
2021/07/05 09:50:05;;;;;;;;;;;;;;;;;;;;;
2021/07/05 09:52:35;;;;;;;1.17;1.07;;;25.60;55.90;;;;;;4815634;29;20453;-86
2021/07/05 09:58:39;;;;;;;1.20;1.00;;;25.60;56.00;;;;;;4766892;30;20587;-86
2021/07/05 10:01:05;;;;;;;1.93;1.40;;;25.50;55.90;;;;;;4800716;30;20422;-87
2021/07/05 10:03:41;;;;;;;1.40;1.10;;;25.60;56.00;;;;;;4818185;29;20488;-86
2021/07/05 10:06:19;;;;;;;2.70;1.27;;;25.60;55.90;;;;;;4866550;29;20430;-86
2021/07/05 10:09:18;;;;;;;1.00;0.90;;;25.60;55.90;;;;;;4856501;29;20443;-86
2021/07/05 10:15:17;;;;;;;1.20;1.10;;;25.60;55.90;;;;;;4873332;29;20437;-85
2021/07/05 10:17:48;;;;;;;1.40;1.30;;;25.60;56.00;;;;;;4861649;29;20466;-86
2021/07/05 10:23:41;;;;;;;1.30;1.10;;;25.60;55.90;;;;;;4876494;29;20433;-86
2021/07/05 10:26:15;;;;;;;1.57;1.00;;;25.60;55.90;;;;;;4861134;29;20414;-86
2021/07/05 10:28:51;;;;;;;2.03;1.50;;;25.60;55.90;;;;;;4876666;29;20414;-86
2021/07/05 10:31:29;;;;;;;1.67;1.13;;;25.60;55.80;;;;;;4861563;29;20444;-86
2021/07/05 10:34:06;;;;;;;1.40;1.13;;;25.60;55.80;;;;;;4933282;29;20459;-87
2021/07/05 10:46:47;;;;;;;1.43;1.17;;;25.60;55.90;;;;;;4913570;29;20388;-88
2021/07/05 10:49:49;;;;;;;1.60;1.10;;;25.70;56.00;;;;;;4897638;29;20424;-88
2021/07/05 10:52:43;;;;;;;3.17;1.17;;;25.70;56.00;;;;;;4913730;29;20413;-85
2021/07/05 10:55:51;;;;;;;1.60;1.10;;;25.60;55.90;;;;;;4897218;29;20421;-87
2021/07/05 10:58:36;;;;;;;1.40;1.10;;;25.70;56.00;;;;;;4910551;29;20832;-87
2021/07/05 11:04:31;;;;;;;1.47;1.00;;;25.70;56.10;;;;;;4886190;29;20425;-84
2021/07/05 11:07:16;;;;;;;1.30;1.17;;;25.70;56.10;;;;;;4890509;29;20416;-84
2021/07/05 11:09:57;;;;;;;2.13;1.10;;;25.60;55.90;;;;;;4935561;29;20487;-84
2021/07/05 11:12:32;;;;;;;3.50;1.17;;;25.60;55.90;;;;;;4935345;29;20419;-85
2021/07/05 11:15:05;;;;;;;1.23;0.93;;;25.70;55.90;;;;;;4936903;29;20423;-85
2021/07/05 11:17:55;;;;;;;1.23;1.13;;;25.70;55.80;;;;;;4938762;29;20419;-85
2021/07/05 11:31:03;;;;;;;1.30;0.90;;;25.70;55.60;;;;;;4937110;29;20383;-88
2021/07/05 11:34:24;;;;;;;1.30;1.10;;;25.70;55.60;;;;;;4897557;29;20417;-88
2021/07/05 11:40:05;;;;;;;1.17;0.97;;;25.70;55.60;;;;;;4823187;29;20497;-89
2021/07/05 11:42:37;;;;;;;1.30;0.90;;;25.70;55.50;;;;;;4823968;29;20448;-89
2021/07/05 11:45:05;;;;;;;2.13;1.93;;;25.70;55.50;;;;;;4816533;29;20532;-89
2021/07/05 11:47:40;;;;;;;5.07;3.27;;;25.70;55.50;;;;;;4805642;30;20466;-89
2021/07/05 11:50:15;;;;;;;12.27;7.90;;;25.70;55.40;;;;;;4805827;30;20438;-89
2021/07/05 11:56:06;;;;;;;16.70;11.80;;;25.70;55.30;;;;;;4819590;29;20438;-88
2021/07/05 11:58:38;;;;;;;17.37;12.50;;;25.70;55.30;;;;;;4796983;29;20466;-88
2021/07/05 12:01:13;;;;;;;14.83;12.07;;;25.70;55.30;;;;;;4790475;30;20414;-88
2021/07/05 12:03:57;;;;;;;15.77;12.10;;;25.70;55.30;;;;;;4805058;30;20443;-88
2021/07/05 12:06:33;;;;;;;16.70;11.60;;;25.70;55.30;;;;;;4801628;30;20434;-88
2021/07/05 12:09:11;;;;;;;12.23;8.80;;;25.70;55.30;;;;;;4787295;30;20433;-88
2021/07/05 12:11:51;;;;;;;10.07;7.97;;;25.70;55.30;;;;;;4832462;29;20444;-88
2021/07/05 12:14:29;;;;;;;13.43;7.80;;;25.70;55.30;;;;;;4878499;29;20434;-88
2021/07/05 12:17:07;;;;;;;7.00;5.77;;;25.70;55.20;;;;;;4905622;29;20424;-89
2021/07/05 12:19:42;;;;;;;7.20;5.47;;;25.60;55.20;;;;;;4934153;29;20475;-89
2021/07/05 12:22:21;;;;;;;5.97;4.60;;;25.60;55.10;;;;;;4932480;29;20790;-86
2021/07/05 12:25:06;;;;;;;9.80;4.27;;;25.60;55.20;;;;;;4934215;29;20407;-88
2021/07/05 12:27:48;;;;;;;4.30;2.73;;;25.60;55.10;;;;;;4931335;29;20428;-89
2021/07/05 12:30:21;;;;;;;6.70;3.80;;;25.60;55.10;;;;;;4916591;29;20496;-88
2021/07/05 12:33:07;;;;;;;5.70;2.90;;;25.60;55.10;;;;;;4901627;29;20408;-88
2021/07/05 12:35:42;;;;;;;2.50;2.30;;;25.50;55.00;;;;;;4915870;29;20432;-89
2021/07/05 12:38:17;;;;;;;2.80;2.10;;;25.50;55.00;;;;;;4916588;29;20994;-88
2021/07/05 12:40:47;;;;;;;4.63;2.43;;;25.50;55.00;;;;;;4916913;29;20464;-89
2021/07/05 12:43:15;;;;;;;3.00;2.10;;;25.50;55.00;;;;;;4916282;29;20421;-88
2021/07/05 12:45:57;;;;;;;3.30;2.07;;;25.50;55.00;;;;;;4915537;29;21048;-89
2021/07/05 12:51:31;;;;;;;2.20;1.80;;;25.40;55.00;;;;;;4878198;29;20434;-88
2021/07/05 12:54:24;;;;;;;1.40;1.30;;;25.40;55.00;;;;;;4877955;29;20426;-89
2021/07/05 12:57:25;;;;;;;4.70;1.87;;;25.40;55.00;;;;;;4877271;29;20423;-88
2021/07/05 13:04:17;;;;;;;;;;;;;;;;;;;;;
2021/07/05 13:07:09;;;;;;;1.83;1.57;;;25.40;55.10;;;;;;4822173;29;20441;-89
2021/07/05 13:09:39;;;;;;;1.40;1.30;;;25.40;55.10;;;;;;4823502;29;20436;-89
2021/07/05 13:12:18;;;;;;;1.67;1.07;;;25.30;55.00;;;;;;4822283;29;20947;-89
2021/07/05 13:14:47;;;;;;;1.40;1.30;;;25.30;54.80;;;;;;4793777;29;20528;-89
2021/07/05 13:17:20;;;;;;;1.83;1.20;;;25.30;54.70;;;;;;4807819;29;20437;-88
2021/07/05 13:19:55;;;;;;;2.07;1.10;;;25.40;54.70;;;;;;4807716;29;20505;-89
2021/07/05 13:22:26;;;;;;;1.40;1.00;;;25.30;54.60;;;;;;4838315;29;20450;-88
2021/07/05 13:28:23;;;;;;;2.00;1.20;;;25.30;54.50;;;;;;4822416;29;20434;-88
2021/07/05 13:31:10;;;;;;;;;;;;;;;;;;;;;
2021/07/05 13:34:38;;;;;;;1.17;1.00;;;25.30;54.70;;;;;;4839758;29;20435;-89
2021/07/05 13:40:35;;;;;;;1.43;1.00;;;25.30;54.80;;;;;;4781855;30;20959;-87
2021/07/05 13:43:51;;;;;;;1.50;1.00;;;25.20;54.80;;;;;;4765790;30;20986;-86
2021/07/05 13:46:21;;;;;;;1.20;1.10;;;25.20;54.80;;;;;;4758535;30;20465;-86
2021/07/05 13:48:58;;;;;;;1.30;1.17;;;25.20;55.00;;;;;;4782200;30;20411;-86
2021/07/05 13:54:42;;;;;;;2.10;1.03;;;25.20;55.00;;;;;;4781308;30;20437;-86
2021/07/05 13:57:33;;;;;;;1.40;1.10;;;25.20;55.10;;;;;;4766786;30;20610;-86
2021/07/05 13:59:59;;;;;;;3.60;1.40;;;25.30;55.10;;;;;;4765647;30;20478;-86
2021/07/05 14:02:57;;;;;;;1.10;0.93;;;25.20;55.10;;;;;;4781489;30;20962;-86
2021/07/05 14:05:32;;;;;;;1.17;0.93;;;25.30;55.10;;;;;;4826539;29;20415;-88
2021/07/05 14:08:21;;;;;;;1.23;1.07;;;25.20;55.10;;;;;;4841744;29;20450;-88
2021/07/05 14:10:57;;;;;;;1.20;1.10;;;25.30;55.20;;;;;;4887869;29;20416;-89
2021/07/05 14:13:38;;;;;;;1.70;1.10;;;25.30;55.20;;;;;;4914122;29;20432;-89
2021/07/05 14:16:12;;;;;;;1.10;1.00;;;25.30;55.20;;;;;;4915100;29;20417;-88
2021/07/05 14:18:41;;;;;;;1.30;1.10;;;25.30;55.20;;;;;;4914143;29;20460;-87
2021/07/05 14:21:12;;;;;;;1.67;1.37;;;25.30;55.20;;;;;;4912938;29;20468;-87
2021/07/05 14:23:39;;;;;;;1.23;1.07;;;25.20;55.10;;;;;;4913925;29;20508;-88
2021/07/05 14:26:33;;;;;;;2.60;1.30;;;25.30;55.20;;;;;;4914122;29;20412;-89
2021/07/05 14:29:00;;;;;;;1.50;1.13;;;25.30;55.20;;;;;;4913650;29;20429;-87
2021/07/05 14:31:25;;;;;;;1.67;0.90;;;25.30;55.20;;;;;;4912800;29;20408;-88
2021/07/05 14:33:54;;;;;;;1.30;1.00;;;25.30;55.30;;;;;;4913958;29;20449;-87
2021/07/05 14:42:47;;;;;;;1.10;1.00;;;25.30;55.20;;;;;;4914260;29;20446;-87
2021/07/05 14:45:17;;;;;;;1.10;0.83;;;25.30;55.30;;;;;;4913066;29;20417;-88
2021/07/05 14:47:48;;;;;;;1.20;0.90;;;25.30;55.30;;;;;;4912928;29;20420;-87
2021/07/05 14:50:29;;;;;;;1.20;1.00;;;25.30;55.40;;;;;;4916011;29;20405;-87